Terminal Aerodrome Forecast
Issued by NWS

Current Version | Previous Version | Text Only | Print | Product List | Glossary Off
Versions: 1 2 3 4 5 6 7 8 9 10 11 12 13 14 15 16 17 18 19

000
FTUS41 KILN 252300
TAFLCK
TAF
KLCK 252330Z 2600/2624 VRB03KT P6SM FEW060
      TEMPO 2609/2612 4SM BR
     FM261500 21005KT P6SM SCT030 SCT250
     FM262300 24004KT P6SM SCT250=

USA.gov is the U.S. government's official web portal to all federal, state and local government web resources and services.